Time;durP1;ratioP1;P1;durP2;ratioP2;P2;SDS_P1;SDS_P2;PMS_P1;PMS_P2;Temp;Humidity;BMP_temperature;BMP_pressure;BME280_temperature;BME280_humidity;BME280_pressure;Samples;Min_cycle;Max_cycle;Signal;HPM_P1;HPM_P2
2024/04/08 00:02:28;;;;;;;13.00;7.90;;;;;;;15.01;100.00;100101.58;179566;1257;46001;-86
2024/04/08 00:06:31;;;;;;;17.40;10.20;;;;;;;15.03;100.00;100097.13;179568;1256;57303;-87
2024/04/08 00:10:37;;;;;;;11.80;8.50;;;;;;;15.06;100.00;100095.50;179194;1255;46029;-87
2024/04/08 00:14:40;;;;;;;8.50;6.80;;;;;;;15.14;100.00;100090.98;178485;1256;45987;-88
2024/04/08 00:18:43;;;;;;;7.90;7.10;;;;;;;15.21;100.00;100080.02;180042;1256;45926;-88
2024/04/08 00:22:51;;;;;;;9.10;6.60;;;;;;;15.30;100.00;100075.87;180344;1257;44096;-89
2024/04/08 00:26:54;;;;;;;9.00;6.70;;;;;;;15.34;100.00;100070.10;179959;1258;59435;-85
2024/04/08 00:31:02;;;;;;;9.30;6.80;;;;;;;15.34;100.00;100060.65;179671;1256;45241;-87
2024/04/08 00:35:05;;;;;;;8.90;7.00;;;;;;;15.34;100.00;100063.23;179502;1256;45964;-88
2024/04/08 00:39:08;;;;;;;7.80;6.30;;;;;;;15.19;100.00;100055.80;179949;1255;46015;-86
2024/04/08 00:43:11;;;;;;;11.00;7.40;;;;;;;15.06;100.00;100044.09;179869;1256;46031;-87
2024/04/08 00:47:15;;;;;;;10.00;7.40;;;;;;;15.04;100.00;100031.27;179328;1256;59290;-87
2024/04/08 00:51:18;;;;;;;9.60;7.50;;;;;;;15.01;100.00;100025.33;180167;1256;44155;-86
2024/04/08 00:55:22;;;;;;;9.30;7.60;;;;;;;15.00;100.00;100020.11;179635;1256;44247;-86
2024/04/08 00:59:26;;;;;;;11.50;8.70;;;;;;;14.96;100.00;100016.71;181268;1257;44166;-86
2024/04/08 01:03:29;;;;;;;9.40;7.60;;;;;;;14.94;100.00;100016.72;180144;1255;44090;-87
2024/04/08 01:07:33;;;;;;;9.00;7.80;;;;;;;14.91;100.00;100012.96;179714;1256;58539;-85
2024/04/08 01:11:36;;;;;;;13.90;8.80;;;;;;;14.81;100.00;100009.05;179494;1257;44046;-87
2024/04/08 01:15:40;;;;;;;26.90;15.30;;;;;;;14.78;100.00;100016.67;178994;1257;45981;-88
2024/04/08 01:19:44;;;;;;;16.50;11.00;;;;;;;14.78;100.00;100021.82;179484;1254;44017;-87
2024/04/08 01:23:48;;;;;;;13.10;8.50;;;;;;;14.80;100.00;100022.83;178157;1259;45996;-85
2024/04/08 01:27:51;;;;;;;13.90;8.10;;;;;;;14.81;100.00;100012.35;179097;1255;58662;-86
2024/04/08 01:31:54;;;;;;;9.50;8.30;;;;;;;14.87;100.00;100004.46;178944;1256;45990;-89
2024/04/08 01:36:00;;;;;;;10.00;6.80;;;;;;;14.88;100.00;100003.83;178928;1257;46061;-86
2024/04/08 01:40:03;;;;;;;;;;;;;;;14.87;100.00;100005.49;179089;1255;46007;-85
2024/04/08 01:44:07;;;;;;;7.90;7.10;;;;;;;14.89;100.00;100005.86;181283;1256;43732;-85
2024/04/08 01:48:10;;;;;;;16.10;12.30;;;;;;;14.91;100.00;100001.91;179757;1255;58311;-87
2024/04/08 01:52:13;;;;;;;12.10;8.30;;;;;;;14.82;100.00;99988.93;179430;1257;45914;-83
2024/04/08 01:56:16;;;;;;;14.40;8.60;;;;;;;14.85;100.00;99977.86;180265;1257;43796;-88
2024/04/08 02:00:20;;;;;;;17.30;14.40;;;;;;;14.92;100.00;99966.58;178812;1256;45607;-86
2024/04/08 02:04:23;;;;;;;10.90;9.40;;;;;;;15.01;100.00;99964.94;178330;1256;46438;-86
2024/04/08 02:08:26;;;;;;;11.80;9.80;;;;;;;15.12;100.00;99967.00;178652;1258;59646;-88
2024/04/08 02:12:29;;;;;;;12.80;11.50;;;;;;;15.17;100.00;99969.04;178617;1257;46087;-85
2024/04/08 02:16:32;;;;;;;14.90;8.00;;;;;;;15.23;100.00;99964.21;179252;1257;44474;-86
2024/04/08 02:20:39;;;;;;;9.40;6.50;;;;;;;15.30;100.00;99965.17;179371;1256;45978;-86
2024/04/08 02:24:43;;;;;;;8.20;6.90;;;;;;;15.22;100.00;99961.70;180009;1259;44773;-86
2024/04/08 02:28:46;;;;;;;13.80;7.30;;;;;;;15.03;100.00;99953.35;179343;1257;58380;-88
2024/04/08 02:32:49;;;;;;;11.10;8.80;;;;;;;14.92;100.00;99945.70;179064;1257;46162;-87
2024/04/08 02:36:52;;;;;;;14.30;11.50;;;;;;;14.85;100.00;99946.23;180615;1257;46019;-89
2024/04/08 02:40:56;;;;;;;12.40;9.90;;;;;;;14.90;100.00;99947.23;179332;1258;44262;-86
2024/04/08 02:44:59;;;;;;;8.70;7.70;;;;;;;14.99;100.00;99948.26;179161;1257;44214;-88
2024/04/08 02:49:02;;;;;;;8.80;7.10;;;;;;;15.07;100.00;99945.13;178437;1257;58330;-88
2024/04/08 02:53:05;;;;;;;8.40;7.10;;;;;;;15.14;100.00;99944.35;180115;1253;44820;-87
2024/04/08 02:57:08;;;;;;;20.80;15.60;;;;;;;15.20;100.00;99935.81;179627;1254;44160;-89
2024/04/08 03:01:12;;;;;;;12.20;7.70;;;;;;;15.23;100.00;99933.68;179676;1256;46118;-89
2024/04/08 03:05:15;;;;;;;8.90;8.10;;;;;;;15.13;100.00;99931.05;179378;1255;46057;-87
2024/04/08 03:09:18;;;;;;;12.50;6.60;;;;;;;15.21;100.00;99927.86;179114;1257;58321;-86
2024/04/08 03:13:21;;;;;;;10.60;7.10;;;;;;;15.35;100.00;99923.84;180650;1257;44215;-89
2024/04/08 03:17:25;;;;;;;13.40;7.90;;;;;;;15.51;100.00;99921.08;180568;1255;46594;-88
2024/04/08 03:21:28;;;;;;;7.30;6.30;;;;;;;15.61;100.00;99914.17;179941;1257;46112;-86
2024/04/08 03:25:32;;;;;;;6.70;6.00;;;;;;;15.62;100.00;99911.73;180658;1256;45988;-85
2024/04/08 03:29:35;;;;;;;8.80;7.00;;;;;;;15.59;100.00;99913.06;178879;1256;58306;-86
2024/04/08 03:33:39;;;;;;;8.10;7.20;;;;;;;15.49;100.00;99914.27;179877;1257;46039;-86
2024/04/08 03:37:42;;;;;;;11.50;8.80;;;;;;;15.50;100.00;99917.45;178431;1256;46186;-84
2024/04/08 03:41:45;;;;;;;6.40;5.60;;;;;;;15.54;100.00;99918.64;179224;1257;46127;-81
2024/04/08 03:45:51;;;;;;;6.50;5.90;;;;;;;15.55;100.00;99922.25;179127;1257;44251;-84
2024/04/08 03:49:54;;;;;;;7.70;5.70;;;;;;;15.64;100.00;99924.69;179057;1257;58348;-86
2024/04/08 03:53:57;;;;;;;9.00;7.60;;;;;;;15.76;100.00;99916.38;179697;1255;46185;-84
2024/04/08 03:58:00;;;;;;;7.90;6.60;;;;;;;15.88;100.00;99917.15;179359;1257;46116;-85
2024/04/08 04:02:03;;;;;;;7.70;6.70;;;;;;;15.77;100.00;99911.45;180118;1256;44967;-83
2024/04/08 04:06:06;;;;;;;9.10;7.80;;;;;;;15.57;100.00;99904.70;178934;1257;46068;-82
2024/04/08 04:10:09;;;;;;;9.40;8.50;;;;;;;15.40;100.00;99891.73;178370;1259;58767;-82
2024/04/08 04:14:12;;;;;;;8.50;6.90;;;;;;;15.27;100.00;99889.30;177952;1254;45842;-84
2024/04/08 04:18:15;;;;;;;8.30;7.50;;;;;;;15.25;100.00;99891.39;178703;1259;44779;-83
2024/04/08 04:22:18;;;;;;;8.20;7.50;;;;;;;15.20;100.00;99893.80;179064;1257;45120;-84
2024/04/08 04:26:21;;;;;;;9.00;6.70;;;;;;;15.06;100.00;99895.00;179321;1256;44820;-84
2024/04/08 04:30:23;;;;;;;11.00;7.00;;;;;;;15.01;100.00;99897.30;178457;1255;59724;-86
2024/04/08 04:34:26;;;;;;;17.10;7.10;;;;;;;14.96;100.00;99895.49;178574;1258;46092;-85
2024/04/08 04:38:29;;;;;;;11.90;10.50;;;;;;;14.95;100.00;99893.11;178812;1254;44713;-85
2024/04/08 04:42:32;;;;;;;12.50;10.60;;;;;;;14.95;100.00;99892.94;179651;1254;45120;-80
2024/04/08 04:46:35;;;;;;;8.70;7.90;;;;;;;14.97;100.00;99892.69;178946;1258;46156;-85
2024/04/08 04:50:38;;;;;;;9.40;6.60;;;;;;;15.02;100.00;99898.65;178378;1255;57894;-83
2024/04/08 04:54:40;;;;;;;46.30;31.30;;;;;;;15.11;100.00;99895.11;179773;1255;46119;-84
2024/04/08 04:58:43;;;;;;;10.50;8.90;;;;;;;15.26;100.00;99890.91;179082;1257;44843;-85
2024/04/08 05:02:46;;;;;;;7.10;5.70;;;;;;;15.37;100.00;99888.61;179386;1254;46221;-85
2024/04/08 05:06:49;;;;;;;7.70;7.00;;;;;;;15.46;100.00;99880.23;179238;1259;46127;-84
2024/04/08 05:10:52;;;;;;;10.80;7.40;;;;;;;15.39;100.00;99880.21;178752;1255;57582;-85
2024/04/08 05:14:55;;;;;;;9.20;4.60;;;;;;;15.41;100.00;99877.11;179184;1259;44479;-84
2024/04/08 05:18:58;;;;;;;9.40;5.40;;;;;;;15.39;100.00;99883.25;178853;1257;46144;-83
2024/04/08 05:23:00;;;;;;;22.40;9.10;;;;;;;15.53;100.00;99879.80;179287;1257;46179;-83
2024/04/08 05:27:04;;;;;;;5.90;5.30;;;;;;;15.61;100.00;99883.23;178944;1256;46019;-84
2024/04/08 05:31:07;;;;;;;7.00;4.90;;;;;;;15.78;100.00;99887.95;178435;1257;59406;-85
2024/04/08 05:35:10;;;;;;;7.20;5.40;;;;;;;15.95;100.00;99890.05;178336;1257;46131;-83
2024/04/08 05:39:12;;;;;;;7.80;5.60;;;;;;;16.14;100.00;99878.29;178286;1259;46269;-84
2024/04/08 05:43:16;;;;;;;7.80;5.30;;;;;;;16.32;100.00;99884.33;178906;1257;46084;-84
2024/04/08 05:47:18;;;;;;;9.70;6.00;;;;;;;16.44;100.00;99883.04;178675;1258;46013;-84
2024/04/08 05:51:25;;;;;;;6.20;4.80;;;;;;;16.61;100.00;99880.96;179139;1259;58801;-84
2024/04/08 05:55:30;;;;;;;5.90;5.20;;;;;;;16.86;100.00;99878.23;178465;1255;45898;-83
2024/04/08 05:59:33;;;;;;;4.90;4.50;;;;;;;17.03;100.00;99877.31;179024;1257;46049;-83
2024/04/08 06:03:36;;;;;;;12.00;5.70;;;;;;;17.00;100.00;99878.13;179169;1257;44211;-83
2024/04/08 06:07:39;;;;;;;6.20;4.60;;;;;;;17.22;100.00;99882.80;178819;1260;46107;-82
2024/04/08 06:11:41;;;;;;;6.70;4.20;;;;;;;17.56;100.00;99874.84;179806;1258;59592;-85
2024/04/08 06:15:45;;;;;;;4.90;4.40;;;;;;;18.05;100.00;99875.16;179710;1257;46004;-85
2024/04/08 06:19:48;;;;;;;8.80;4.10;;;;;;;18.53;100.00;99879.03;180357;1254;44106;-82
2024/04/08 06:23:50;;;;;;;3.90;3.50;;;;;;;18.99;100.00;99879.99;179321;1258;215272;-85
2024/04/08 06:27:54;;;;;;;5.80;3.40;;;;;;;19.42;100.00;99884.73;179578;1257;46002;-82
2024/04/08 06:31:57;;;;;;;4.80;3.80;;;;;;;19.86;100.00;99890.86;178849;1259;59566;-84
2024/04/08 06:36:01;;;;;;;5.00;3.60;;;;;;;20.21;100.00;99882.55;179076;1257;46061;-82
2024/04/08 06:40:07;;;;;;;6.70;4.10;;;;;;;20.66;100.00;99877.67;178508;1257;45910;-85
2024/04/08 06:44:11;;;;;;;3.80;3.10;;;;;;;21.19;100.00;99881.65;178724;1255;46120;-83
2024/04/08 06:48:16;;;;;;;5.10;3.10;;;;;;;21.69;100.00;99880.70;179452;1260;46092;-82
2024/04/08 06:52:21;;;;;;;5.60;3.40;;;;;;;22.07;99.39;99869.91;179242;1257;61424;-82
2024/04/08 06:56:24;;;;;;;4.60;2.50;;;;;;;22.36;91.14;99864.54;180414;1256;44301;-84
2024/04/08 07:00:27;;;;;;;3.00;2.80;;;;;;;22.41;87.99;99856.64;179210;1259;45875;-84
2024/04/08 07:04:30;;;;;;;5.90;2.90;;;;;;;22.48;89.80;99863.10;179107;1260;46165;-83
2024/04/08 07:08:33;;;;;;;3.60;2.70;;;;;;;22.55;89.95;99864.33;178848;1259;45937;-85
2024/04/08 07:12:36;;;;;;;4.20;2.60;;;;;;;22.82;91.62;99871.32;179205;1257;58250;-85
2024/04/08 07:16:40;;;;;;;3.30;2.80;;;;;;;23.14;89.38;99871.20;179246;1257;46203;-84
2024/04/08 07:20:44;;;;;;;4.90;3.80;;;;;;;23.15;87.21;99866.70;179234;1257;46079;-84
2024/04/08 07:24:46;;;;;;;3.90;1.90;;;;;;;23.18;88.46;99864.17;179163;1257;46001;-81
2024/04/08 07:28:50;;;;;;;5.00;3.80;;;;;;;23.33;87.86;99864.60;179029;1257;45977;-85
2024/04/08 07:32:54;;;;;;;5.80;3.00;;;;;;;23.42;86.52;99863.86;179046;1257;59229;-84
2024/04/08 07:36:57;;;;;;;3.00;2.70;;;;;;;23.56;86.57;99874.30;179382;1257;46023;-81
2024/04/08 07:41:01;;;;;;;4.10;2.90;;;;;;;23.78;89.24;99879.66;179004;1257;44161;-83
2024/04/08 07:45:06;;;;;;;5.40;2.90;;;;;;;24.05;83.43;99878.20;178969;1257;46975;-82
2024/04/08 07:49:10;;;;;;;8.80;2.50;;;;;;;24.23;79.72;99879.48;179089;1257;46131;-83
2024/04/08 07:53:14;;;;;;;4.00;2.00;;;;;;;24.43;78.13;99874.23;179530;1257;60088;-83
2024/04/08 07:57:17;;;;;;;4.40;1.90;;;;;;;24.63;76.42;99866.02;180510;1256;46041;-84
2024/04/08 08:01:22;;;;;;;11.40;3.00;;;;;;;24.77;76.23;99866.64;179394;1257;44731;-82
2024/04/08 08:05:25;;;;;;;3.50;2.20;;;;;;;24.85;74.97;99870.41;179172;1257;46822;-83
2024/04/08 08:09:28;;;;;;;5.30;2.40;;;;;;;24.75;74.89;99872.41;179473;1257;44834;-82
2024/04/08 08:13:33;;;;;;;3.60;2.40;;;;;;;24.76;74.87;99872.89;179680;1255;59328;-82
2024/04/08 08:17:36;;;;;;;6.50;3.20;;;;;;;24.76;72.18;99874.78;179794;1257;44116;-84
2024/04/08 08:21:41;;;;;;;4.40;2.10;;;;;;;24.73;70.48;99875.41;179724;1255;45885;-82
2024/04/08 08:25:47;;;;;;;6.10;2.40;;;;;;;24.68;69.43;99868.77;179457;1257;46109;-82
2024/04/08 08:29:51;;;;;;;3.20;1.90;;;;;;;24.72;67.59;99870.17;179334;1256;44810;-83
2024/04/08 08:33:54;;;;;;;7.10;1.80;;;;;;;24.77;68.36;99871.11;179275;1257;57951;-83
2024/04/08 08:37:58;;;;;;;5.30;2.10;;;;;;;24.82;67.37;99866.63;179512;1254;46048;-84
2024/04/08 08:42:06;;;;;;;8.40;2.40;;;;;;;24.85;67.65;99864.48;179860;1257;46138;-83
2024/04/08 08:46:10;;;;;;;3.70;1.90;;;;;;;24.89;67.60;99861.86;179662;1255;45219;-83
2024/04/08 08:50:13;;;;;;;2.70;1.80;;;;;;;24.91;68.97;99857.13;179305;1257;46007;-83
2024/04/08 08:54:17;;;;;;;5.00;1.90;;;;;;;24.91;68.29;99850.61;179079;1259;58270;-84
2024/04/08 08:58:23;;;;;;;2.80;1.30;;;;;;;24.91;68.15;99844.17;179417;1259;46016;-84
2024/04/08 09:02:26;;;;;;;14.60;2.90;;;;;;;24.95;67.53;99842.86;179291;1257;46032;-83
2024/04/08 09:06:29;;;;;;;4.90;1.70;;;;;;;25.02;66.14;99842.22;179277;1257;46197;-84
2024/04/08 09:10:44;;;;;;;2.90;1.30;;;;;;;25.15;67.29;99845.34;179610;1255;44756;-85
2024/04/08 09:14:51;;;;;;;5.90;2.60;;;;;;;25.20;65.44;99851.98;179248;1258;57995;-84
2024/04/08 09:18:55;;;;;;;4.80;1.60;;;;;;;25.31;66.48;99855.95;179212;1254;46080;-84
2024/04/08 09:22:58;;;;;;;3.50;1.60;;;;;;;25.43;65.94;99864.82;179575;1255;45935;-84
2024/04/08 09:27:06;;;;;;;3.10;1.40;;;;;;;25.68;67.75;99878.05;179405;1256;46116;-83
2024/04/08 09:31:10;;;;;;;5.90;2.20;;;;;;;25.81;70.90;99896.34;179617;1256;46058;-85
2024/04/08 09:35:13;;;;;;;5.10;1.60;;;;;;;25.79;69.70;99903.08;179596;1257;60780;-85
2024/04/08 09:39:21;;;;;;;7.40;2.60;;;;;;;25.65;69.03;99892.64;180529;1258;45403;-85
2024/04/08 09:43:24;;;;;;;5.00;1.70;;;;;;;25.67;67.08;99885.18;179654;1258;46128;-85
2024/04/08 09:47:30;;;;;;;7.40;2.10;;;;;;;25.69;66.81;99900.90;179430;1256;45256;-84
2024/04/08 09:51:34;;;;;;;3.40;1.70;;;;;;;25.73;66.81;99895.98;179477;1257;46114;-83
2024/04/08 09:55:45;;;;;;;21.00;4.80;;;;;;;25.92;69.65;99871.95;179559;1258;59534;-85
2024/04/08 09:59:56;;;;;;;5.90;2.50;;;;;;;26.13;66.43;99853.17;179658;1257;44290;-83
2024/04/08 10:04:03;;;;;;;3.50;1.40;;;;;;;26.21;64.74;99854.18;179684;1256;43939;-84
2024/04/08 10:08:08;;;;;;;5.40;2.20;;;;;;;26.36;64.44;99850.40;179559;1257;44008;-83
2024/04/08 10:12:11;;;;;;;2.20;1.70;;;;;;;26.44;64.54;99862.35;179719;1257;46221;-85
2024/04/08 10:16:16;;;;;;;6.20;2.10;;;;;;;26.63;67.09;99864.34;179405;1259;57944;-84
2024/04/08 10:20:20;;;;;;;1.10;0.90;;;;;;;26.74;66.57;99863.41;179638;1257;46022;-84
2024/04/08 10:24:29;;;;;;;2.30;1.20;;;;;;;26.85;64.19;99855.83;179666;1255;44405;-84
2024/04/08 10:28:44;;;;;;;3.30;1.40;;;;;;;26.96;63.67;99857.35;179908;1256;44130;-85
2024/04/08 10:32:47;;;;;;;3.90;1.80;;;;;;;27.01;63.41;99847.27;179927;1257;45911;-84
2024/04/08 10:36:53;;;;;;;6.30;2.40;;;;;;;26.94;62.26;99835.98;179808;1257;60059;-84
2024/04/08 10:41:07;;;;;;;2.70;1.30;;;;;;;26.98;62.15;99825.73;180224;1257;44020;-85
2024/04/08 10:45:10;;;;;;;3.00;2.00;;;;;;;27.05;60.90;99827.48;179937;1256;44187;-83
2024/04/08 10:49:13;;;;;;;5.20;1.90;;;;;;;27.12;60.45;99829.35;179931;1254;45237;-83
2024/04/08 10:53:16;;;;;;;26.50;5.60;;;;;;;27.21;60.02;99832.95;179881;1254;45959;-85
2024/04/08 10:57:26;;;;;;;1.90;1.00;;;;;;;27.38;61.31;99830.86;179914;1254;60236;-85
2024/04/08 11:01:29;;;;;;;4.00;2.20;;;;;;;27.44;59.62;99826.91;179871;1254;44202;-84
2024/04/08 11:05:33;;;;;;;1.90;1.10;;;;;;;27.58;61.57;99823.39;179764;1257;45987;-85
2024/04/08 11:09:37;;;;;;;3.00;1.30;;;;;;;27.68;60.14;99818.60;179644;1254;45997;-84
2024/04/08 11:13:44;;;;;;;2.80;2.00;;;;;;;27.73;60.22;99815.98;179825;1257;46027;-85
2024/04/08 11:17:47;;;;;;;2.30;1.30;;;;;;;27.87;60.52;99814.11;179796;1254;59519;-82
2024/04/08 11:21:50;;;;;;;2.20;1.50;;;;;;;27.97;59.33;99810.80;179859;1254;46010;-85
2024/04/08 11:25:54;;;;;;;3.70;1.00;;;;;;;28.02;58.60;99801.40;179895;1254;45924;-84
2024/04/08 11:29:57;;;;;;;3.70;1.70;;;;;;;28.06;57.92;99795.11;180127;1255;45983;-85
2024/04/08 11:34:01;;;;;;;4.10;1.40;;;;;;;28.13;56.62;99789.36;180107;1254;46222;-84
2024/04/08 11:38:06;;;;;;;5.10;1.50;;;;;;;28.21;56.81;99774.27;179879;1258;60408;-84
2024/04/08 11:42:27;;;;;;;5.90;1.40;;;;;;;28.26;56.95;99762.79;179995;1256;44129;-84
2024/04/08 11:46:31;;;;;;;9.50;1.20;;;;;;;28.27;54.92;99764.71;180085;1255;46161;-83
2024/04/08 11:50:34;;;;;;;3.60;1.40;;;;;;;28.31;55.41;99764.59;180069;1255;46039;-85
2024/04/08 11:54:40;;;;;;;29.40;5.20;;;;;;;28.29;55.02;99764.61;180434;1254;45923;-85
2024/04/08 11:59:06;;;;;;;4.00;1.50;;;;;;;28.40;56.53;99763.86;180078;1254;58319;-84
2024/04/08 12:03:13;;;;;;;4.10;1.70;;;;;;;28.50;56.37;99766.31;180030;1255;44057;-84
2024/04/08 12:07:24;;;;;;;2.20;1.70;;;;;;;28.57;55.66;99767.92;180332;1254;44280;-84
2024/04/08 12:11:27;;;;;;;4.50;1.60;;;;;;;28.65;56.12;99764.10;180309;1254;44626;-83
2024/04/08 12:15:33;;;;;;;3.20;1.30;;;;;;;28.75;54.91;99758.94;180286;1254;45232;-82
2024/04/08 12:19:39;;;;;;;4.10;1.50;;;;;;;28.75;53.90;99749.42;180288;1254;58219;-84
2024/04/08 12:23:48;;;;;;;3.00;1.70;;;;;;;28.75;53.56;99745.64;180231;1254;44772;-86
2024/04/08 12:27:51;;;;;;;3.80;2.10;;;;;;;28.77;54.28;99739.93;180162;1254;46071;-84
2024/04/08 12:31:54;;;;;;;3.90;2.00;;;;;;;28.79;54.94;99737.48;179976;1255;46131;-85
2024/04/08 12:35:58;;;;;;;3.40;1.40;;;;;;;28.80;55.52;99737.77;180008;1254;44401;-84
2024/04/08 12:40:05;;;;;;;2.60;1.70;;;;;;;28.80;54.72;99732.25;180089;1257;59472;-84
2024/04/08 12:44:09;;;;;;;10.00;1.80;;;;;;;28.87;54.70;99727.27;179868;1259;46211;-83
2024/04/08 12:48:14;;;;;;;3.10;0.90;;;;;;;28.82;56.04;99714.83;180081;1254;46390;-84
2024/04/08 12:52:21;;;;;;;17.70;3.50;;;;;;;28.82;54.59;99713.01;180373;1254;44563;-82
2024/04/08 12:56:26;;;;;;;3.00;1.20;;;;;;;28.84;56.72;99707.16;180459;1254;44196;-84
2024/04/08 13:00:29;;;;;;;3.90;1.70;;;;;;;28.83;55.38;99710.23;180401;1254;57955;-84
2024/04/08 13:04:34;;;;;;;1.70;1.10;;;;;;;28.84;55.63;99704.05;179882;1257;45977;-85
2024/04/08 13:08:37;;;;;;;2.90;1.80;;;;;;;28.83;56.22;99699.21;180022;1254;46074;-85
2024/04/08 13:12:42;;;;;;;;;;;;;;;28.81;55.21;99698.11;180063;1254;44823;-85
2024/04/08 13:16:46;;;;;;;1.90;1.00;;;;;;;28.81;54.73;99692.23;180071;1256;45806;-85
2024/04/08 13:20:51;;;;;;;4.10;2.10;;;;;;;28.84;55.73;99689.20;180012;1254;60183;-83
2024/04/08 13:25:14;;;;;;;13.50;3.30;;;;;;;28.83;55.69;99688.38;180143;1254;44091;-85
2024/04/08 13:29:44;;;;;;;3.60;1.70;;;;;;;28.81;55.12;99680.64;179814;1254;46367;-83
2024/04/08 13:33:53;;;;;;;3.70;1.50;;;;;;;28.87;56.50;99679.04;180099;1254;46138;-84
2024/04/08 13:37:57;;;;;;;8.00;2.50;;;;;;;28.89;57.71;99672.72;179720;1254;45994;-82
2024/04/08 13:42:02;;;;;;;5.40;1.60;;;;;;;28.95;60.37;99669.68;180194;1254;59839;-87
2024/04/08 13:46:06;;;;;;;2.20;1.40;;;;;;;28.89;57.03;99667.74;180343;1254;43977;-82
2024/04/08 13:50:10;;;;;;;6.00;1.70;;;;;;;28.87;57.36;99664.45;179956;1257;44212;-86
2024/04/08 13:54:18;;;;;;;3.20;1.60;;;;;;;28.76;56.83;99666.80;179911;1255;46121;-86
2024/04/08 13:58:26;;;;;;;1.10;1.00;;;;;;;28.71;57.91;99668.73;179619;1256;45929;-86
2024/04/08 14:02:29;;;;;;;;;;;;;;;28.64;59.16;99669.37;179784;1256;59588;-86
2024/04/08 14:06:36;;;;;;;3.90;1.30;;;;;;;28.57;57.31;99666.20;179840;1256;43956;-85
2024/04/08 14:10:41;;;;;;;1.20;0.90;;;;;;;28.49;55.69;99663.74;179650;1255;46128;-85
2024/04/08 14:14:46;;;;;;;15.70;1.70;;;;;;;28.45;55.56;99660.20;179896;1255;45808;-84
2024/04/08 14:18:52;;;;;;;14.90;1.80;;;;;;;28.55;57.08;99651.81;179891;1255;46042;-84
2024/04/08 14:22:59;;;;;;;6.00;1.70;;;;;;;28.62;58.93;99649.78;180096;1259;59859;-86
2024/04/08 14:27:06;;;;;;;9.30;2.30;;;;;;;28.57;57.35;99649.74;179416;1254;46114;-85
2024/04/08 14:31:09;;;;;;;17.90;2.90;;;;;;;28.56;59.27;99651.70;179734;1255;46026;-85
2024/04/08 14:35:12;;;;;;;3.00;1.30;;;;;;;28.63;60.03;99649.62;179870;1254;46113;-84
2024/04/08 14:39:16;;;;;;;5.30;1.60;;;;;;;28.74;59.60;99647.08;180302;1254;44604;-84
2024/04/08 14:43:38;;;;;;;5.40;1.60;;;;;;;28.79;57.09;99648.21;180213;1254;58268;-85
2024/04/08 14:47:57;;;;;;;4.60;2.50;;;;;;;28.89;57.70;99658.21;179885;1255;45899;-83
2024/04/08 14:52:03;;;;;;;4.90;1.80;;;;;;;28.97;59.83;99661.22;179632;1255;47113;-84
2024/04/08 14:56:08;;;;;;;5.70;1.90;;;;;;;28.97;59.39;99657.27;179854;1258;46816;-83
2024/04/08 15:00:16;;;;;;;9.70;2.10;;;;;;;28.95;61.71;99654.20;179526;1254;46103;-86
2024/04/08 15:04:22;;;;;;;7.60;1.80;;;;;;;28.96;60.15;99650.59;179714;1254;57327;-85
2024/04/08 15:08:28;;;;;;;1.90;1.20;;;;;;;28.90;58.65;99648.10;180036;1254;45865;-83
2024/04/08 15:12:37;;;;;;;2.70;2.40;;;;;;;28.81;56.37;99649.55;179950;1254;46020;-84
2024/04/08 15:16:42;;;;;;;3.70;1.70;;;;;;;28.57;54.83;99649.09;179660;1254;46004;-83
2024/04/08 15:20:46;;;;;;;4.90;1.60;;;;;;;28.41;55.83;99643.81;180039;1254;45324;-83
2024/04/08 15:24:50;;;;;;;3.00;2.00;;;;;;;28.21;55.07;99640.89;179898;1254;59752;-84
2024/04/08 15:28:54;;;;;;;5.00;1.00;;;;;;;28.05;57.08;99636.90;179751;1257;45974;-80
2024/04/08 15:32:57;;;;;;;3.10;1.30;;;;;;;27.92;57.85;99639.23;180202;1254;44121;-81
2024/04/08 15:37:05;;;;;;;1.70;1.30;;;;;;;27.87;59.58;99636.48;179799;1257;44136;-85
2024/04/08 15:41:13;;;;;;;2.10;1.50;;;;;;;27.79;58.21;99632.64;180015;1254;44071;-83
2024/04/08 15:45:18;;;;;;;5.20;1.60;;;;;;;27.72;57.35;99630.81;179985;1254;57960;-86
2024/04/08 15:49:25;;;;;;;3.00;2.00;;;;;;;27.59;57.87;99627.49;179655;1254;44781;-85
2024/04/08 15:53:28;;;;;;;4.10;2.60;;;;;;;27.34;58.33;99629.68;179361;1254;46118;-84
2024/04/08 15:57:32;;;;;;;2.60;1.50;;;;;;;27.06;58.88;99632.31;180119;1255;46122;-84
2024/04/08 16:01:36;;;;;;;3.10;1.70;;;;;;;26.69;60.64;99629.12;179390;1254;46007;-83
2024/04/08 16:05:43;;;;;;;3.40;1.50;;;;;;;26.33;61.59;99627.02;179150;1256;60030;-84
2024/04/08 16:09:46;;;;;;;19.40;4.70;;;;;;;25.99;63.50;99628.58;179015;1255;45904;-85
2024/04/08 16:13:50;;;;;;;4.30;2.40;;;;;;;25.84;64.16;99629.55;178942;1254;46089;-86
2024/04/08 16:17:53;;;;;;;5.80;2.50;;;;;;;25.76;65.09;99635.12;179713;1255;46112;-84
2024/04/08 16:21:57;;;;;;;2.90;2.20;;;;;;;25.67;64.27;99639.75;180030;1256;46017;-86
2024/04/08 16:26:04;;;;;;;3.00;1.60;;;;;;;25.62;64.37;99639.23;179355;1255;59366;-86
2024/04/08 16:30:08;;;;;;;9.30;2.80;;;;;;;25.58;66.07;99644.76;180801;1255;43828;-85
2024/04/08 16:34:12;;;;;;;6.10;2.20;;;;;;;25.51;65.89;99642.48;179738;1254;45961;-85
2024/04/08 16:38:17;;;;;;;5.60;1.90;;;;;;;25.46;66.24;99645.52;179291;1257;46105;-84
2024/04/08 16:42:23;;;;;;;6.50;1.80;;;;;;;25.30;66.08;99648.88;179681;1254;46130;-86
2024/04/08 16:46:27;;;;;;;5.20;2.80;;;;;;;25.15;65.85;99652.04;179034;1257;59741;-87
2024/04/08 16:50:31;;;;;;;4.40;2.80;;;;;;;25.02;66.52;99658.54;179841;1256;46130;-85
2024/04/08 16:54:34;;;;;;;6.60;1.70;;;;;;;24.87;66.71;99656.14;179557;1256;44709;-85
2024/04/08 16:58:37;;;;;;;3.40;1.80;;;;;;;24.70;66.82;99652.42;179256;1257;46005;-85
2024/04/08 17:02:43;;;;;;;2.50;1.50;;;;;;;24.52;67.04;99654.69;179684;1257;45985;-85
2024/04/08 17:06:48;;;;;;;4.70;2.10;;;;;;;24.39;67.13;99655.44;179534;1255;59163;-86
2024/04/08 17:10:53;;;;;;;2.30;2.00;;;;;;;24.24;67.65;99651.52;180254;1257;44160;-86
2024/04/08 17:14:57;;;;;;;7.10;2.00;;;;;;;24.07;68.15;99649.34;181108;1254;44898;-85
2024/04/08 17:19:03;;;;;;;4.00;2.10;;;;;;;23.91;68.66;99648.66;181104;1259;43960;-84
2024/04/08 17:23:09;;;;;;;4.00;2.00;;;;;;;23.70;69.32;99649.09;179221;1256;44039;-83
2024/04/08 17:27:14;;;;;;;8.40;1.50;;;;;;;23.62;69.51;99655.16;179574;1254;59188;-84
2024/04/08 17:31:21;;;;;;;4.40;1.90;;;;;;;23.53;70.02;99661.52;178990;1257;45980;-87
2024/04/08 17:35:25;;;;;;;2.70;2.10;;;;;;;23.40;70.31;99665.86;179805;1256;46044;-84
2024/04/08 17:39:32;;;;;;;2.90;1.80;;;;;;;23.29;71.06;99673.98;179520;1256;46070;-84
2024/04/08 17:43:40;;;;;;;6.30;2.60;;;;;;;23.14;71.14;99682.95;179922;1255;46093;-84
2024/04/08 17:47:44;;;;;;;4.10;2.80;;;;;;;23.00;71.65;99681.55;179578;1256;57971;-86
2024/04/08 17:51:47;;;;;;;7.60;2.90;;;;;;;22.85;72.56;99680.05;179336;1255;44968;-86
2024/04/08 17:56:03;;;;;;;7.70;3.30;;;;;;;22.74;73.26;99679.73;180042;1255;46048;-82
2024/04/08 18:00:07;;;;;;;5.00;2.60;;;;;;;22.65;73.78;99683.09;179818;1255;45987;-84
2024/04/08 18:04:10;;;;;;;13.30;6.60;;;;;;;22.45;74.68;99685.46;179819;1257;44420;-88
2024/04/08 18:08:14;;;;;;;21.30;14.20;;;;;;;22.28;75.48;99688.02;180298;1257;59695;-85
2024/04/08 18:12:18;;;;;;;15.50;10.10;;;;;;;22.18;76.04;99693.34;180323;1257;44894;-86
2024/04/08 18:16:23;;;;;;;9.60;5.80;;;;;;;22.05;76.43;99691.98;180372;1254;45946;-85
2024/04/08 18:20:27;;;;;;;13.80;3.40;;;;;;;21.96;76.63;99689.60;180668;1256;44016;-84
2024/04/08 18:24:30;;;;;;;4.50;3.20;;;;;;;21.92;76.72;99684.27;179477;1258;421210;-86
2024/04/08 18:28:37;;;;;;;20.30;11.50;;;;;;;21.87;76.86;99688.62;180098;1258;57931;-86
2024/04/08 18:32:41;;;;;;;40.70;22.80;;;;;;;21.78;77.37;99687.69;179463;1256;45730;-85
2024/04/08 18:36:45;;;;;;;8.40;5.30;;;;;;;21.75;77.92;99692.58;179571;1255;44743;-82
2024/04/08 18:40:48;;;;;;;4.60;4.00;;;;;;;21.61;79.40;99692.36;180323;1259;45971;-87
2024/04/08 18:44:51;;;;;;;3.30;3.00;;;;;;;21.24;82.56;99688.05;180461;1256;45769;-85
2024/04/08 18:48:55;;;;;;;5.60;3.60;;;;;;;20.93;83.63;99688.66;179489;1256;59337;-85